Time;durP1;ratioP1;P1;durP2;ratioP2;P2;SDS_P1;SDS_P2;PMS_P1;PMS_P2;Temp;Humidity;BMP_temperature;BMP_pressure;BME280_temperature;BME280_humidity;BME280_pressure;Samples;Min_cycle;Max_cycle;Signal;HPM_P1;HPM_P2
2022/01/20 19:38:14;;;;;;;3.80;2.13;;;;;;;0.48;97.59;151492.88;5128982;27;20276;-80
2022/01/20 19:40:52;;;;;;;3.83;1.90;;;;;;;0.51;99.95;151500.56;5082855;28;20442;-79
2022/01/20 19:43:28;;;;;;;3.17;1.80;;;;;;;0.51;97.75;151500.56;5102105;28;20473;-80
2022/01/20 19:46:03;;;;;;;4.73;2.43;;;;;;;0.50;95.96;151498.03;5128661;28;20509;-80
2022/01/20 19:48:40;;;;;;;4.53;1.93;;;;;;;0.55;95.11;151510.88;5105368;28;20432;-80
2022/01/20 19:51:18;;;;;;;4.37;1.97;;;;;;;0.61;96.85;151527.53;5138023;27;20510;-80
2022/01/20 19:53:55;;;;;;;4.03;1.73;;;;;;;0.59;96.49;151522.41;5091843;28;20440;-80
2022/01/20 19:56:30;;;;;;;4.13;2.20;;;;;;;0.64;98.74;151533.94;5108417;28;20470;-80
2022/01/20 19:59:06;;;;;;;5.60;2.57;;;;;;;0.64;96.20;151533.94;5102967;28;20441;-80
2022/01/20 20:01:44;;;;;;;5.90;1.80;;;;;;;0.66;97.38;151539.13;5121445;28;20441;-80
2022/01/20 20:04:23;;;;;;;3.20;2.07;;;;;;;0.63;96.01;151531.41;5137907;27;20436;-80
2022/01/20 20:07:02;;;;;;;2.57;2.30;;;;;;;0.61;95.40;151527.53;5123389;27;20819;-80
2022/01/20 20:09:41;;;;;;;5.33;1.90;;;;;;;0.62;95.60;151528.81;5101623;28;20440;-80
2022/01/20 20:12:18;;;;;;;4.77;2.00;;;;;;;0.61;96.00;151526.25;5107581;28;20440;-80
2022/01/20 20:14:53;;;;;;;3.03;1.80;;;;;;;0.57;95.79;151517.28;5098837;28;20859;-80
2022/01/20 20:17:29;;;;;;;5.10;2.10;;;;;;;0.60;97.88;151523.72;5093786;28;20451;-80
2022/01/20 20:20:06;;;;;;;4.00;2.17;;;;;;;0.55;99.30;151512.16;5103629;28;20440;-80
2022/01/20 20:22:42;;;;;;;5.90;2.60;;;;;;;0.53;98.00;151505.75;5085272;28;20537;-80
2022/01/20 20:25:19;;;;;;;9.83;2.87;;;;;;;0.60;97.28;151523.72;5080554;28;20442;-81
2022/01/20 20:27:55;;;;;;;7.53;2.03;;;;;;;0.57;95.37;151517.28;5089089;28;20479;-80
2022/01/20 20:30:30;;;;;;;3.10;2.07;;;;;;;0.57;95.85;151517.28;5105708;28;20551;-80
2022/01/20 20:33:06;;;;;;;6.10;2.83;;;;;;;0.62;97.74;151528.81;5104144;28;20475;-81
2022/01/20 20:35:42;;;;;;;2.93;2.23;;;;;;;0.66;97.27;151537.84;5104743;28;20964;-80
2022/01/20 20:38:17;;;;;;;3.60;2.30;;;;;;;0.70;96.19;151548.09;5104658;28;20447;-80
2022/01/20 20:40:54;;;;;;;4.23;2.17;;;;;;;0.74;95.99;151559.66;5084647;28;20460;-80
2022/01/20 20:43:30;;;;;;;3.63;1.97;;;;;;;0.73;97.29;151557.09;5104054;28;20451;-80
2022/01/20 20:46:06;;;;;;;4.90;1.90;;;;;;;0.70;96.95;151549.38;5105305;28;20440;-81
2022/01/20 20:48:42;;;;;;;3.60;2.30;;;;;;;0.66;97.73;151539.13;5131215;27;20495;-81
2022/01/20 20:51:18;;;;;;;6.13;2.67;;;;;;;0.68;97.09;151542.97;5082875;28;20441;-80
2022/01/20 20:53:54;;;;;;;4.00;2.50;;;;;;;0.63;93.81;151531.41;5074957;28;20448;-81
2022/01/20 20:56:30;;;;;;;2.93;2.03;;;;;;;0.65;97.72;151536.53;5086796;28;20464;-81
2022/01/20 20:59:06;;;;;;;5.47;2.60;;;;;;;0.58;94.49;151518.59;5071168;28;20539;-81
2022/01/20 21:01:42;;;;;;;2.53;2.10;;;;;;;0.54;96.25;151508.28;5068046;28;20452;-81
2022/01/20 21:04:17;;;;;;;5.60;2.40;;;;;;;0.54;97.10;151508.28;5089342;28;20943;-81
2022/01/20 21:06:54;;;;;;;8.93;2.50;;;;;;;0.50;94.54;151499.28;5075367;28;20830;-81
2022/01/20 21:09:30;;;;;;;3.30;2.37;;;;;;;0.55;94.96;151512.16;5072899;28;20806;-81
2022/01/20 21:12:09;;;;;;;4.30;1.90;;;;;;;0.55;98.34;151510.88;5124039;27;20925;-81
2022/01/20 21:14:45;;;;;;;3.70;2.00;;;;;;;0.49;97.17;151495.44;5108971;27;20475;-81
2022/01/20 21:17:20;;;;;;;5.77;2.80;;;;;;;0.51;97.76;151501.88;5097898;28;20450;-81
2022/01/20 21:19:56;;;;;;;2.97;2.50;;;;;;;0.50;98.08;151498.03;5085047;28;20557;-81
2022/01/20 21:22:32;;;;;;;5.40;2.10;;;;;;;0.48;98.14;151492.88;5091312;28;20535;-81
2022/01/20 21:25:08;;;;;;;5.87;2.50;;;;;;;0.48;95.13;151494.16;5075329;28;20429;-81
2022/01/20 21:27:44;;;;;;;5.20;2.10;;;;;;;0.52;96.12;151503.16;5090992;28;20559;-81
2022/01/20 21:30:20;;;;;;;3.70;2.10;;;;;;;0.54;98.13;151508.28;5076376;28;20432;-81
2022/01/20 21:32:55;;;;;;;5.37;2.90;;;;;;;0.56;97.40;151514.69;5065190;28;20453;-81
2022/01/20 21:35:31;;;;;;;3.60;2.13;;;;;;;0.54;96.34;151508.28;5088791;28;20919;-81
2022/01/20 21:38:07;;;;;;;4.37;2.43;;;;;;;0.52;98.66;151503.16;5094881;28;20472;-81
2022/01/20 21:40:42;;;;;;;3.17;2.40;;;;;;;0.48;98.96;151494.16;5092532;28;20435;-82
2022/01/20 21:43:19;;;;;;;3.60;2.60;;;;;;;0.51;97.38;151501.88;5088738;28;20466;-81
2022/01/20 21:45:55;;;;;;;8.50;2.57;;;;;;;0.50;97.80;151498.03;5056550;28;20464;-81
2022/01/20 21:48:31;;;;;;;3.37;2.53;;;;;;;0.51;98.36;151500.56;5105394;27;20479;-81
2022/01/20 21:51:10;;;;;;;6.00;2.30;;;;;;;0.50;96.61;151499.28;5118250;27;20448;-81
2022/01/20 21:53:46;;;;;;;3.67;2.73;;;;;;;0.50;97.33;151498.03;5091986;28;20513;-81
2022/01/20 21:56:23;;;;;;;6.10;2.33;;;;;;;0.54;97.60;151508.28;5075937;28;20440;-80
2022/01/20 21:59:00;;;;;;;3.03;2.10;;;;;;;0.51;96.44;151500.56;5077753;28;20442;-81
2022/01/20 22:01:36;;;;;;;4.80;2.37;;;;;;;0.54;97.63;151508.28;5070918;28;20441;-81
2022/01/20 22:04:11;;;;;;;3.53;1.90;;;;;;;0.54;96.99;151509.59;5131080;27;20545;-80
2022/01/20 22:06:47;;;;;;;5.67;2.13;;;;;;;0.54;97.11;151509.59;5092286;28;20860;-80
2022/01/20 22:09:26;;;;;;;3.90;2.53;;;;;;;0.57;98.49;151516.00;5079871;28;20664;-81
2022/01/20 22:12:02;;;;;;;4.53;2.63;;;;;;;0.54;96.87;151508.28;5075847;28;20451;-81
2022/01/20 22:14:39;;;;;;;3.30;2.40;;;;;;;0.59;98.08;151521.13;5126446;27;20440;-81
2022/01/20 22:17:15;;;;;;;5.63;2.83;;;;;;;0.60;97.61;151523.72;5092112;28;20428;-81
2022/01/20 22:19:51;;;;;;;4.80;2.70;;;;;;;0.59;96.90;151521.13;5095354;28;20838;-81
2022/01/20 22:22:26;;;;;;;3.50;2.30;;;;;;;0.63;97.21;151530.13;5117431;27;20444;-81
2022/01/20 22:25:02;;;;;;;6.67;2.83;;;;;;;0.64;97.27;151532.72;5092133;28;20455;-82
2022/01/20 22:27:37;;;;;;;3.90;2.27;;;;;;;0.65;96.20;151536.53;5070698;28;20470;-81
2022/01/20 22:30:14;;;;;;;5.00;2.43;;;;;;;0.66;95.97;151539.13;5089213;28;20944;-80
2022/01/20 22:32:49;;;;;;;4.40;2.40;;;;;;;0.67;95.53;151541.66;5088036;28;20532;-80
2022/01/20 22:35:25;;;;;;;4.87;2.47;;;;;;;0.68;95.91;151544.25;5084643;28;20437;-81
2022/01/20 22:38:01;;;;;;;2.80;2.20;;;;;;;0.65;96.75;151535.25;5084739;28;20490;-81
2022/01/20 22:40:39;;;;;;;4.23;2.00;;;;;;;0.67;96.20;151540.38;5092182;28;20424;-81
2022/01/20 22:43:18;;;;;;;4.07;2.00;;;;;;;0.69;99.42;151546.78;5091557;28;20444;-81
2022/01/20 22:45:57;;;;;;;4.27;2.70;;;;;;;0.66;98.08;151539.13;5096993;28;20440;-81
2022/01/20 22:48:36;;;;;;;4.33;1.80;;;;;;;0.66;98.87;151539.13;5095504;28;20469;-81
2022/01/20 22:51:11;;;;;;;6.37;2.50;;;;;;;0.67;98.83;151541.66;5072889;28;20944;-81
2022/01/20 22:53:47;;;;;;;4.27;2.37;;;;;;;0.69;99.94;151546.78;5104937;28;20461;-81
2022/01/20 22:56:23;;;;;;;5.30;2.47;;;;;;;0.68;100.00;151544.25;5071702;28;20433;-81
2022/01/20 22:59:00;;;;;;;5.17;2.37;;;;;;;0.65;98.48;151535.25;5080591;28;20441;-80
2022/01/20 23:01:37;;;;;;;6.87;2.67;;;;;;;0.68;99.02;151542.97;5125374;27;20452;-81
2022/01/20 23:04:13;;;;;;;4.50;2.60;;;;;;;0.67;99.22;151541.66;5091534;28;20436;-81
2022/01/20 23:06:49;;;;;;;4.90;2.50;;;;;;;0.66;97.83;151539.13;5091008;28;20432;-80
2022/01/20 23:09:25;;;;;;;4.40;2.37;;;;;;;0.69;98.45;151546.78;5075994;28;20452;-81
2022/01/20 23:12:00;;;;;;;5.43;2.40;;;;;;;0.64;97.69;151533.94;5078982;28;20429;-81
2022/01/20 23:14:36;;;;;;;3.80;2.00;;;;;;;0.66;96.78;151537.84;5091545;28;20453;-81
2022/01/20 23:17:30;;;;;;;4.23;2.50;;;;;;;0.72;97.15;151553.22;5090673;28;20444;-80
2022/01/20 23:23:01;;;;;;;4.40;2.87;;;;;;;0.74;97.48;151559.66;5091288;28;20919;-80
2022/01/20 23:25:37;;;;;;;5.53;2.47;;;;;;;0.72;97.32;151553.22;5091073;28;20472;-80
2022/01/20 23:28:13;;;;;;;6.50;2.87;;;;;;;0.73;100.00;151557.09;5075801;28;20495;-81
2022/01/20 23:30:48;;;;;;;8.40;3.17;;;;;;;0.65;99.40;151536.53;5075034;28;20445;-80
2022/01/20 23:33:25;;;;;;;8.33;3.40;;;;;;;0.67;98.10;151540.38;5075497;28;20537;-80
2022/01/20 23:36:02;;;;;;;5.23;2.80;;;;;;;0.65;99.72;151535.25;5110019;28;20440;-80
2022/01/20 23:38:37;;;;;;;3.80;2.30;;;;;;;0.64;99.44;151533.94;5095723;28;20467;-80
2022/01/20 23:41:16;;;;;;;4.67;2.93;;;;;;;0.64;100.00;151532.72;5100130;28;20535;-80
2022/01/20 23:44:22;;;;;;;4.13;2.30;;;;;;;0.63;100.00;151530.13;5092256;28;20441;-81
2022/01/20 23:49:49;;;;;;;3.30;2.60;;;;;;;0.53;100.00;151507.00;5090899;28;20429;-80
2022/01/20 23:52:28;;;;;;;8.33;3.00;;;;;;;0.47;99.88;151490.34;5087592;28;20432;-81
2022/01/20 23:55:05;;;;;;;5.00;2.70;;;;;;;0.41;99.83;151474.91;5108284;28;20443;-81
2022/01/20 23:57:42;;;;;;;3.83;2.83;;;;;;;0.45;100.00;151485.22;5075096;28;20810;-81
